• Join FlightAware (Why Join?)
  • Login
  • US Flag 
04:09AM EDT


 

Airport Tracker/Info


-or-


 

Live Flight TrackerFlight Track Log ✈ UAL623 ✈ 04-May-2013 ✈ KORD - KLAX

Flight Track Log - Related Links

Times and Time Zones

All times are in EDT time to prevent confusion due to time zone crossing. See the UAL623 flight status page for this flight to view local times or setup timezone preferences in your user account.

Time Position Orientation Groundspeed Altitude Reporting Facility
EDT Latitude Longitude Course Direction KTS MPH feet Rate Location/Type
07:24PM 42.0000 -87.9500 253° West 179 206 1,600  Level Chicago TRACON
07:25PM 42.0500 -87.9833 334° Northwest 235 270 3,300 2,040 Climbing Chicago TRACON
07:26PM 42.0667 -88.0667 285° West 270 311 5,300 2,580 Climbing Chicago TRACON
07:27PM 41.8793 -88.3266 242° Southwest  Level FlightAware Approximate
07:27PM 42.0500 -88.1500 255° West 284 327 8,000  Level Chicago TRACON
07:28PM 41.8372 -88.4641 255° West  Level FlightAware Approximate
07:28PM 42.0272 -88.2314 249° West 286 329 9,900  Level Chicago Center
07:29PM 41.8059 -88.6077 254° West  Level FlightAware Approximate
07:29PM 41.9883 -88.3400 244° Southwest 321 369 11,300  Level Chicago Center
07:30PM 41.7741 -88.7510 253° West  Level FlightAware Approximate
07:30PM 41.9336 -88.4564 238° Southwest 363 418 13,800  Level Chicago Center
07:31PM 41.8664 -88.5592 229° Southwest 369 425 16,000 1,020 Climbing Chicago Center
07:32PM 41.7994 -88.6708 231° Southwest 385 443 16,000 360 Level Chicago Center
07:33PM 41.7600 -88.8031 248° West 390 449 16,800 1,560 Climbing Chicago Center
07:34PM 41.7175 -88.9706 251° West 398 458 19,200 2,160 Climbing Chicago Center
07:35PM 41.6853 -89.1175 254° West 411 473 21,300 1,860 Climbing Chicago Center
07:36PM 41.6514 -89.2686 253° West 425 489 23,100 1,620 Climbing Chicago Center
07:37PM 41.6161 -89.4214 253° West 433 498 24,700 1,620 Climbing Chicago Center
07:38PM 41.5736 -89.5939 252° West 444 511 26,400 1,500 Climbing Chicago Center
07:39PM 41.5361 -89.7536 253° West 453 521 27,800 1,260 Climbing Chicago Center
07:40PM 41.4972 -89.9156 252° West 459 528 29,100 1,200 Climbing Chicago Center
07:41PM 41.4589 -90.0806 253° West 467 537 30,300 1,260 Climbing Chicago Center
07:42PM 41.4183 -90.2467 252° West 473 544 31,700 1,320 Climbing Chicago Center
07:43PM 41.3786 -90.4119 252° West 472 543 33,100 1,080 Climbing Chicago Center
07:44PM 41.3383 -90.5742 252° West 467 537 34,000 420 Climbing Chicago Center
07:45PM 41.2994 -90.7458 253° West 486 559 34,000  Level Chicago Center
07:46PM 41.2572 -90.9514 255° West 483 556 34,000  Level Chicago Center
07:47PM 41.2225 -91.1214 255° West 481 554 34,000  Level Chicago Center
07:48PM 41.1875 -91.2894 255° West 475 547 34,000  Level Chicago Center
07:49PM 41.1531 -91.4583 255° West 476 548 34,000  Level Chicago Center
07:50PM 41.1172 -91.6258 254° West 474 545 34,000  Level Chicago Center
07:51PM 41.0800 -91.8033 255° West 477 549 34,000  Level Chicago Center
07:52PM 41.0444 -91.9725 254° West 481 554 34,000  Level Chicago Center
07:53PM 41.0081 -92.1406 254° West 482 555 34,000  Level Chicago Center
07:54PM 40.9714 -92.3092 254° West 481 554 34,000  Level Chicago Center
07:55PM 40.9272 -92.5106 254° West 481 554 34,000  Level Chicago Center
07:56PM 40.8906 -92.6772 254° West 479 551 34,000  Level Chicago Center
07:57PM 40.8525 -92.8464 253° West 485 558 34,000  Level Chicago Center
07:58PM 40.8156 -93.0125 254° West 482 555 34,000 300 Level Chicago Center
07:59PM 40.7781 -93.1803 254° West 482 555 34,600 420 Climbing Minneapolis Center
08:01PM 40.7331 -93.3756 253° West 473 544 35,000 120 Climbing Minneapolis Center
08:02PM 40.6939 -93.5417 253° West 477 549 35,000  Level Minneapolis Center
08:03PM 40.6564 -93.7058 253° West 476 548 35,000  Level Minneapolis Center
08:04PM 40.6186 -93.8700 253° West 474 545 35,000  Level Minneapolis Center
08:05PM 40.5822 -94.0372 254° West 478 550 35,000  Level Minneapolis Center
08:06PM 40.5467 -94.2403 257° West 479 551 35,000  Level Minneapolis Center
08:07PM 40.5200 -94.4083 258° West 476 548 35,100 480 Climbing Minneapolis Center
08:08PM 40.4900 -94.5761 257° West 477 549 36,000 420 Climbing Minneapolis Center
08:09PM 40.4644 -94.7389 258° West 469 540 36,000 -480 Level Minneapolis Center
08:10PM 40.4369 -94.9022 258° West 462 532 35,100 -1,020 Descending Minneapolis Center
08:11PM 40.4047 -95.0736 256° West 471 542 34,000 -1,260 Descending Minneapolis Center
08:12PM 40.3756 -95.2444 257° West 477 549 32,600 -1,020 Descending Minneapolis Center
08:13PM 40.3450 -95.4161 257° West 481 554 32,000 -300 Descending Minneapolis Center
08:14PM 40.3136 -95.5867 256° West 481 554 32,000  Level Minneapolis Center
08:15PM 40.2831 -95.7589 257° West 482 555 32,000  Level Minneapolis Center
08:16PM 40.2511 -95.9325 256° West 486 559 32,000  Level Minneapolis Center
08:17PM 40.2264 -96.0681 257° West 483 556 32,000  Level Minneapolis Center
08:18PM 40.1869 -96.3144 258° West 491 565 32,000  Level Minneapolis Center
08:19PM 40.1647 -96.4914 261° West 491 565 32,000  Level Minneapolis Center
08:20PM 40.1433 -96.6689 261° West 492 566 32,000  Level Minneapolis Center
08:21PM 40.1211 -96.8431 261° West 488 562 32,000  Level Minneapolis Center
08:22PM 40.0975 -97.0167 260° West 487 560 32,000  Level Minneapolis Center
08:23PM 40.0753 -97.1892 260° West 483 556 32,000  Level Minneapolis Center
08:24PM 40.0506 -97.3794 260° West 483 556 32,000  Level Minneapolis Center
08:25PM 40.0264 -97.5511 260° West 481 554 32,000  Level Minneapolis Center
08:26PM 40.0036 -97.7219 260° West 478 550 32,000  Level Minneapolis Center
08:27PM 39.9803 -97.8925 260° West 477 549 32,000  Level Minneapolis Center
08:28PM 39.9564 -98.0597 259° West 472 543 32,000 -240 Level Minneapolis Center
08:29PM 39.9336 -98.2289 260° West 472 543 31,600 -900 Descending Minneapolis Center
08:30PM 39.9092 -98.3958 259° West 470 541 30,200 -840 Descending Minneapolis Center
08:31PM 39.8853 -98.5636 260° West 470 541 30,000 -120 Descending Minneapolis Center
08:32PM 39.8614 -98.7322 260° West 471 542 30,000  Level Minneapolis Center
08:33PM 39.8319 -98.9317 259° West 467 537 30,000  Level Denver Center
08:34PM 39.8075 -99.0994 259° West 469 540 30,000  Level Denver Center
08:35PM 39.7822 -99.2661 259° West 469 540 30,000  Level Denver Center
08:36PM 39.7567 -99.4308 259° West 466 536 30,000  Level Denver Center
08:37PM 39.7314 -99.5967 259° West 466 536 30,000  Level Denver Center
08:38PM 39.7056 -99.7614 259° West 465 535 30,000  Level Denver Center
08:39PM 39.6758 -99.9556 259° West 470 541 30,000  Level Denver Center
08:41PM 39.6508 -100.1094 258° West 460 529 30,000  Level Denver Center
08:42PM 39.6256 -100.2656 258° West 460 529 30,000  Level Denver Center
08:43PM 39.5978 -100.4464 259° West 458 527 30,000  Level Denver Center
08:44PM 39.5728 -100.5992 258° West 454 522 30,000  Level Denver Center
08:45PM 39.5433 -100.7758 258° West 450 518 30,000  Level Denver Center
08:46PM 39.5186 -100.9264 258° West 445 512 30,000  Level Denver Center
08:47PM 39.4936 -101.0769 258° West 447 514 30,000  Level Denver Center
08:48PM 39.4633 -101.2519 257° West 444 511 30,000  Level Denver Center
08:49PM 39.4425 -101.3742 258° West 439 505 30,000  Level Denver Center
08:50PM 39.4125 -101.5458 257° West 438 504 30,000 240 Level Denver Center
08:51PM 39.3792 -101.7400 258° West 433 498 30,600 1,020 Climbing Denver Center
08:52PM 39.3575 -101.8864 259° West 433 498 32,200 1,680 Climbing Denver Center
08:53PM 39.3336 -102.0511 259° West 420 483 34,100 1,320 Climbing Denver Center
08:54PM 39.3097 -102.2050 259° West 418 481 35,000 840 Climbing Denver Center
08:55PM 39.2881 -102.3478 259° West 423 487 35,900 480 Climbing Denver Center
08:56PM 39.2664 -102.4867 259° West 417 480 36,000  Climbing Denver Center
08:57PM 39.2419 -102.6450 259° West 406 467 36,000  Level Denver Center
08:58PM 39.2197 -102.7800 258° West 413 475 36,000  Level Denver Center
08:59PM 39.1958 -102.9278 258° West 416 479 36,000  Level Denver Center
09:00PM 39.1678 -103.1003 258° West 419 482 36,000  Level Denver Center
09:01PM 39.1431 -103.2469 258° West 415 478 36,000  Level Denver Center
09:02PM 39.1194 -103.3936 258° West 414 476 36,000  Level Denver Center
09:03PM 39.0947 -103.5386 258° West 410 472 36,000  Level Denver Center
09:04PM 39.0706 -103.6833 258° West 409 471 36,000  Level Denver Center
09:05PM 39.0464 -103.8256 258° West 405 466 36,000  Level Denver Center
09:06PM 39.0228 -103.9681 258° West 402 463 36,000  Level Denver Center
09:07PM 38.9975 -104.1092 257° West 400 460 36,000  Level Denver Center
09:08PM 38.9725 -104.2525 257° West 406 467 36,000  Level Denver Center
09:09PM 38.9475 -104.3961 257° West 407 468 36,000 240 Level Denver Center
09:10PM 38.9228 -104.5375 257° West 405 466 36,500 480 Climbing Denver Center
09:11PM 38.8967 -104.6792 257° West 404 465 37,000 540 Climbing Denver Center
09:12PM 38.8708 -104.8256 257° West 413 475 37,700 480 Climbing Denver Center
09:13PM 38.8450 -104.9686 257° West 408 470 38,000 120 Climbing Denver Center
09:14PM 38.8206 -105.1056 257° West 395 455 38,000  Level Denver Center
09:16PM 38.7956 -105.2431 257° West 392 451 38,000  Level Denver Center
09:17PM 38.7669 -105.4025 257° West 391 450 38,000  Level Denver Center
09:18PM 38.7422 -105.5381 257° West 388 447 38,000  Level Denver Center
09:19PM 38.7164 -105.6739 256° West 389 448 38,000  Level Denver Center
09:20PM 38.6864 -105.8328 256° West 390 449 38,000  Level Denver Center
09:21PM 38.6608 -105.9697 257° West 392 451 38,000  Level Denver Center
09:22PM 38.6336 -106.1075 256° West 395 455 38,000  Level Denver Center
09:23PM 38.6089 -106.2400 257° West 391 450 38,000  Level Denver Center
09:24PM 38.5819 -106.3772 256° West 394 453 38,000  Level Denver Center
09:25PM 38.5558 -106.5153 256° West 397 457 38,000  Level Denver Center
09:26PM 38.5286 -106.6519 256° West 396 456 38,000  Level Denver Center
09:27PM 38.5017 -106.7869 256° West 391 450 38,000  Level Denver Center
09:28PM 38.4747 -106.9208 256° West 389 448 38,000  Level Denver Center
09:29PM 38.4469 -107.0531 255° West 385 443 38,000  Level Denver Center
09:30PM 38.4053 -107.1808 247° West 388 447 38,000  Level Denver Center
09:31PM 38.3511 -107.3433 247° West 388 447 38,000  Level Denver Center
09:32PM 38.3047 -107.4864 248° West 390 449 38,000  Level Denver Center
09:33PM 38.2642 -107.6072 247° West 389 448 38,000  Level Denver Center
09:34PM 38.2231 -107.7300 247° West 391 450 38,000  Level Denver Center
09:35PM 38.1747 -107.8708 246° West 390 449 38,000  Level Denver Center
09:36PM 38.1275 -108.0108 247° West 386 444 38,000  Level Denver Center
09:37PM 38.0797 -108.1506 247° West 387 445 38,000  Level Denver Center
09:39PM 38.0414 -108.2650 247° West 385 443 38,000  Level Denver Center
09:40PM 37.9939 -108.3992 246° West 379 436 38,000  Level Denver Center
09:41PM 37.9525 -108.5153 246° West 378 435 38,000  Level Denver Center
09:42PM 37.9050 -108.6561 247° West 384 442 38,000  Level Denver Center
09:43PM 37.8633 -108.7750 246° West 386 444 38,000  Level Denver Center
09:44PM 37.8222 -108.8922 246° West 385 443 38,000  Level Denver Center
09:45PM 37.7675 -109.0261 243° Southwest 385 443 38,000  Level Denver Center
09:46PM 37.7164 -109.1389 240° Southwest 386 444 38,000  Level Denver Center
09:47PM 37.6575 -109.2708 241° Southwest 387 445 38,000  Level Denver Center
09:48PM 37.6078 -109.3833 241° Southwest 386 444 38,000  Level Denver Center
09:49PM 37.5567 -109.4981 241° Southwest 390 449 38,000  Level Denver Center
09:50PM 37.4964 -109.6306 240° Southwest 390 449 38,000  Level Denver Center
09:51PM 37.4450 -109.7456 241° Southwest 394 453 38,000  Level Denver Center
09:52PM 37.3847 -109.8786 240° Southwest 394 453 38,000  Level Denver Center
09:53PM 37.3325 -109.9931 240° Southwest 396 456 38,000  Level Denver Center
09:54PM 37.2806 -110.1069 240° Southwest 394 453 38,000  Level Denver Center
09:55PM 37.2247 -110.2283 240° Southwest 395 455 38,000  Level Denver Center
09:56PM 37.1692 -110.3489 240° Southwest 398 458 38,000  Level Denver Center
09:57PM 37.1150 -110.4675 240° Southwest 394 453 38,000  Level Denver Center
09:58PM 37.0594 -110.5875 240° Southwest 397 457 38,000  Level Denver Center
09:59PM 36.9933 -110.7300 240° Southwest 396 456 38,000  Level Denver Center
10:00PM 36.9378 -110.8486 240° Southwest 395 455 38,000  Level Denver Center
10:01PM 36.8817 -110.9689 240° Southwest 399 459 38,000  Level Denver Center
10:02PM 36.8269 -111.0869 240° Southwest 395 455 38,000  Level Denver Center
10:03PM 36.7728 -111.2036 240° Southwest 391 450 38,000  Level Denver Center
10:04PM 36.7161 -111.3214 239° Southwest 393 452 38,000  Level Denver Center
10:05PM 36.6594 -111.4406 239° Southwest 397 457 38,000  Level Denver Center
10:06PM 36.6028 -111.5592 239° Southwest 398 458 38,000  Level Denver Center
10:07PM 36.5461 -111.6767 239° Southwest 396 456 38,000  Level Denver Center
10:08PM 36.4889 -111.7944 239° Southwest 397 457 38,000  Level Denver Center
10:09PM 36.4314 -111.9119 239° Southwest 393 452 38,000  Level Los Angeles Center
10:10PM 36.3744 -112.0289 239° Southwest 393 452 38,000  Level Los Angeles Center
10:11PM 36.3089 -112.1717 240° Southwest 397 457 38,000  Level Los Angeles Center
10:12PM 36.2592 -112.2917 243° Southwest 393 452 38,000  Level Los Angeles Center
10:13PM 36.2089 -112.4136 243° Southwest 394 453 38,000  Level Los Angeles Center
10:14PM 36.1597 -112.5333 243° Southwest 391 450 38,000  Level Los Angeles Center
10:15PM 36.1092 -112.6539 243° Southwest 393 452 38,000  Level Los Angeles Center
10:16PM 36.0600 -112.7703 242° Southwest 386 444 38,000  Level Los Angeles Center
10:17PM 36.0094 -112.8903 243° Southwest 390 449 38,000  Level Los Angeles Center
10:18PM 35.9583 -113.0097 242° Southwest 392 451 38,000  Level Los Angeles Center
10:19PM 35.9081 -113.1294 243° Southwest 395 455 38,000  Level Los Angeles Center
10:20PM 35.8578 -113.2481 242° Southwest 396 456 38,000  Level Los Angeles Center
10:21PM 35.7967 -113.3917 242° Southwest 399 459 38,000  Level Los Angeles Center
10:22PM 35.7450 -113.5117 242° Southwest 402 463 38,000  Level Los Angeles Center
10:23PM 35.6933 -113.6306 242° Southwest 400 460 38,000  Level Los Angeles Center
10:24PM 35.6514 -113.7253 241° Southwest 399 459 38,000  Level Los Angeles Center
10:25PM 35.5897 -113.8669 242° Southwest 397 457 38,000  Level Los Angeles Center
10:26PM 35.5369 -113.9872 242° Southwest 401 461 38,000  Level Los Angeles Center
10:27PM 35.4853 -114.1069 242° Southwest 400 460 38,000  Level Los Angeles Center
10:29PM 35.4264 -114.2411 242° Southwest 397 457 38,000  Level Los Angeles Center
10:30PM 35.3753 -114.3572 242° Southwest 389 448 38,000  Level Los Angeles Center
10:31PM 35.3222 -114.4764 241° Southwest 394 453 38,000  Level Los Angeles Center
10:32PM 35.2694 -114.5956 242° Southwest 396 456 38,000  Level Los Angeles Center
10:33PM 35.2164 -114.7142 241° Southwest 396 456 38,000  Level Los Angeles Center
10:34PM 35.1633 -114.8319 241° Southwest 394 453 38,000  Level Los Angeles Center
10:35PM 35.1094 -114.9497 241° Southwest 396 456 38,000  Level Los Angeles Center
10:36PM 35.0481 -115.0881 242° Southwest 389 448 38,000  Level Los Angeles Center
10:37PM 34.9947 -115.2050 241° Southwest 391 450 38,000  Level Los Angeles Center
10:38PM 34.9500 -115.3047 241° Southwest 396 456 38,000  Level Los Angeles Center
10:39PM 34.8894 -115.4397 241° Southwest 392 451 38,000  Level Los Angeles Center
10:40PM 34.8350 -115.5569 241° Southwest 396 456 38,000 -300 Level Los Angeles Center
10:41PM 34.7794 -115.6794 241° Southwest 400 460 37,500 -540 Descending Los Angeles Center
10:42PM 34.7239 -115.7981 240° Southwest 402 463 37,000 -960 Descending Los Angeles Center
10:43PM 34.6703 -115.9153 241° Southwest 400 460 35,600 -1,440 Descending Los Angeles Center
10:44PM 34.6183 -116.0283 241° Southwest 386 444 34,100 -1,620 Descending Los Angeles Center
10:45PM 34.5667 -116.1389 240° Southwest 375 432 32,400 -1,800 Descending Los Angeles Center
10:46PM 34.5156 -116.2472 240° Southwest 371 427 30,500 -1,920 Descending Los Angeles Center
10:47PM 34.4672 -116.3522 241° Southwest 359 413 28,600 -1,860 Descending Los Angeles Center
10:48PM 34.4197 -116.4539 240° Southwest 347 399 26,800 -1,740 Descending Los Angeles Center
10:49PM 34.3725 -116.5525 240° Southwest 340 391 25,100 -1,860 Descending Los Angeles Center
10:50PM 34.3147 -116.6719 240° Southwest 344 396 23,100 -1,860 Descending Los Angeles Center
10:51PM 34.2647 -116.7772 240° Southwest 358 412 21,400 -1,680 Descending Los Angeles Center
10:52PM 34.2169 -116.8789 240° Southwest 351 404 19,700 -1,200 Descending Los Angeles Center
10:53PM 34.1700 -116.9783 240° Southwest 342 394 19,000 -420 Descending Los Angeles Center
10:54PM 34.1217 -117.0775 240° Southwest 343 395 18,900 -780 Descending Los Angeles Center
10:55PM 34.0833 -117.1667 243° Southwest 335 386 17,600 -1,500 Descending Southern California TRACON
10:56PM 34.0500 -117.2667 248° West 334 384 16,200 -1,320 Descending Southern California TRACON
10:57PM 34.0333 -117.3833 260° West 324 373 15,000 -1,200 Descending Southern California TRACON
10:58PM 34.0333 -117.4833 270° West 289 333 13,900 -1,560 Descending Southern California TRACON
10:59PM 34.0167 -117.5833 259° West 312 359 11,900 -1,800 Descending Southern California TRACON
11:00PM 34.0000 -117.6667 256° West 266 306 10,200 -1,380 Descending Southern California TRACON
11:01PM 34.0000 -117.7667 270° West 250 288 9,100 -1,200 Descending Southern California TRACON
11:02PM 33.9833 -117.8500 256° West 264 304 7,800 -1,260 Descending Southern California TRACON
11:03PM 33.9833 -117.9333 270° West 259 298 6,600 -1,020 Descending Southern California TRACON
11:04PM 33.9667 -118.0167 256° West 251 289 5,800 -900 Descending Southern California TRACON
11:05PM 33.9667 -118.0833 270° West 230 265 5,000 -1,080 Descending Southern California TRACON
11:06PM 33.9667 -118.1667 270° West 216 249 3,800 -1,200 Descending Southern California TRACON
11:06PM 33.9586 -118.1844 241° Southwest 223 257 3,400 -1,080 Descending Los Angeles Center
11:07PM 33.9508 -118.2508 262° West 211 243 2,300 -1,020 Descending Los Angeles Center
11:08PM 33.9464 -118.3072 265° West 188 216 1,400 -840 Descending Los Angeles Center
11:09PM 33.9408 -118.3531 262° West 157 181 700 -540 Descending Los Angeles Center
11:11PM 33.9367 -118.4033 264° West 148 170 200 -420 Descending Los Angeles Center